createdAt,value
2023-04-07T00:00:54.661Z,0.00
2023-04-07T00:01:54.671Z,0.00
2023-04-07T00:02:54.700Z,0.00
2023-04-07T00:03:54.851Z,0.00
2023-04-07T00:04:54.682Z,0.00
2023-04-07T00:05:57.600Z,0.00
2023-04-07T00:06:54.632Z,0.00
2023-04-07T00:07:57.020Z,0.00
2023-04-07T00:08:54.588Z,0.00
2023-04-07T00:09:54.594Z,0.00
2023-04-07T00:10:54.552Z,0.00
2023-04-07T00:11:54.635Z,0.00
2023-04-07T00:12:54.569Z,0.00
2023-04-07T00:13:54.797Z,0.00
2023-04-07T00:14:54.570Z,0.00
2023-04-07T00:15:54.558Z,0.00
2023-04-07T00:16:54.523Z,0.00
2023-04-07T00:17:54.549Z,0.00
2023-04-07T00:18:54.505Z,0.00
2023-04-07T00:19:54.460Z,0.00
2023-04-07T00:20:57.453Z,0.00
2023-04-07T00:21:54.474Z,0.00
2023-04-07T00:22:54.463Z,0.00
2023-04-07T00:23:54.613Z,0.00
2023-04-07T00:24:54.444Z,0.00
2023-04-07T00:25:54.495Z,0.00
2023-04-07T00:26:54.389Z,0.00
2023-04-07T00:27:54.408Z,0.00
2023-04-07T00:28:54.370Z,0.00
2023-04-07T00:29:54.393Z,0.00
2023-04-07T00:30:54.401Z,0.00
2023-04-07T00:31:54.341Z,0.00
2023-04-07T00:32:54.406Z,0.00
2023-04-07T00:33:54.459Z,0.00
2023-04-07T00:34:54.382Z,0.00
2023-04-07T00:35:57.365Z,0.00
2023-04-07T00:36:54.290Z,0.00
2023-04-07T00:37:54.274Z,0.00
2023-04-07T00:38:54.271Z,0.00
2023-04-07T00:39:54.258Z,0.00
2023-04-07T00:40:54.314Z,0.00
2023-04-07T00:41:54.349Z,0.00
2023-04-07T00:42:54.260Z,0.00
2023-04-07T00:43:54.368Z,0.00
2023-04-07T00:44:54.243Z,0.00
2023-04-07T00:45:54.267Z,0.00
2023-04-07T00:46:54.273Z,0.00
2023-04-07T00:48:54.176Z,0.00
2023-04-07T00:49:54.185Z,0.00
2023-04-07T00:50:57.156Z,0.00
2023-04-07T00:51:54.184Z,0.00
2023-04-07T00:52:54.186Z,0.00
2023-04-07T00:53:54.350Z,0.00
2023-04-07T00:54:54.136Z,0.00
2023-04-07T00:56:54.164Z,0.00
2023-04-07T00:58:54.076Z,0.00
2023-04-07T00:59:54.059Z,0.00
2023-04-07T01:00:54.069Z,0.00
2023-04-07T01:01:54.123Z,0.00
2023-04-07T01:02:54.165Z,0.00
2023-04-07T01:03:54.476Z,0.00
2023-04-07T01:04:54.045Z,0.00
2023-04-07T01:05:56.995Z,0.00
2023-04-07T01:06:54.010Z,0.00
2023-04-07T01:07:54.004Z,0.00
2023-04-07T01:08:53.994Z,0.00
2023-04-07T01:09:53.978Z,0.00
2023-04-07T01:10:53.964Z,0.00
2023-04-07T01:11:53.991Z,0.00
2023-04-07T01:12:53.932Z,0.00
2023-04-07T01:13:54.129Z,0.00
2023-04-07T01:14:53.915Z,0.00
2023-04-07T01:15:53.924Z,0.00
2023-04-07T01:16:55.120Z,0.00
2023-04-07T01:17:53.932Z,0.00
2023-04-07T01:18:53.867Z,0.00
2023-04-07T01:19:53.892Z,0.00
2023-04-07T01:20:56.860Z,0.00
2023-04-07T01:21:53.841Z,0.00
2023-04-07T01:22:53.875Z,0.00
2023-04-07T01:23:54.095Z,0.00
2023-04-07T01:24:53.809Z,0.00
2023-04-07T01:25:53.785Z,0.00
2023-04-07T01:27:53.764Z,0.00
2023-04-07T01:28:53.762Z,0.00
2023-04-07T01:29:53.769Z,0.00
2023-04-07T01:30:53.738Z,0.00
2023-04-07T01:31:53.780Z,0.00
2023-04-07T01:32:53.767Z,0.00
2023-04-07T01:33:53.807Z,0.00
2023-04-07T01:34:53.683Z,0.00
2023-04-07T01:35:56.708Z,0.00
2023-04-07T01:36:53.733Z,0.00
2023-04-07T01:37:53.678Z,0.00
2023-04-07T01:38:53.683Z,0.00
2023-04-07T01:39:53.635Z,0.00
2023-04-07T01:40:53.649Z,0.00
2023-04-07T01:41:53.632Z,0.00
2023-04-07T01:42:53.614Z,0.00
2023-04-07T01:43:53.717Z,0.00
2023-04-07T01:44:53.578Z,0.00
2023-04-07T01:45:53.577Z,0.00
2023-04-07T01:46:53.652Z,0.00
2023-04-07T01:47:53.747Z,0.00
2023-04-07T01:48:53.565Z,0.00
2023-04-07T01:49:53.684Z,0.00
2023-04-07T01:50:56.572Z,0.00
2023-04-07T01:51:53.534Z,0.00
2023-04-07T01:52:53.522Z,0.00
2023-04-07T01:53:53.893Z,0.00
2023-04-07T01:54:53.530Z,0.00
2023-04-07T01:55:53.495Z,0.00
2023-04-07T01:56:53.507Z,0.00
2023-04-07T01:57:53.486Z,0.00
2023-04-07T01:58:53.447Z,0.00
2023-04-07T01:59:53.444Z,0.00
2023-04-07T02:00:53.501Z,0.00
2023-04-07T02:01:53.566Z,0.00
2023-04-07T02:02:53.624Z,0.00
2023-04-07T02:03:53.853Z,0.00
2023-04-07T02:04:53.410Z,0.00
2023-04-07T02:05:56.508Z,0.00
2023-04-07T02:06:53.404Z,0.00
2023-04-07T02:07:53.419Z,0.00
2023-04-07T02:08:53.372Z,0.00
2023-04-07T02:09:53.340Z,0.00
2023-04-07T02:10:53.318Z,0.00
2023-04-07T02:11:53.361Z,0.00
2023-04-07T02:12:53.312Z,0.00
2023-04-07T02:14:53.279Z,0.00
2023-04-07T02:15:53.271Z,0.00
2023-04-07T02:16:53.347Z,0.00
2023-04-07T02:17:53.337Z,0.00
2023-04-07T02:18:53.266Z,0.00
2023-04-07T02:20:56.224Z,0.00
2023-04-07T02:21:53.213Z,0.00
2023-04-07T02:22:53.313Z,0.00
2023-04-07T02:23:53.265Z,0.00
2023-04-07T02:24:53.211Z,0.00
2023-04-07T02:25:53.204Z,0.00
2023-04-07T02:26:53.190Z,0.00
2023-04-07T02:27:53.154Z,0.00
2023-04-07T02:28:53.165Z,0.00
2023-04-07T02:29:53.145Z,0.00
2023-04-07T02:30:53.144Z,0.00
2023-04-07T02:32:53.296Z,0.00
2023-04-07T02:33:53.233Z,0.00
2023-04-07T02:34:53.114Z,0.00
2023-04-07T02:35:56.089Z,0.00
2023-04-07T02:36:53.150Z,0.00
2023-04-07T02:37:53.081Z,0.00
2023-04-07T02:38:53.098Z,0.00
2023-04-07T02:39:53.055Z,0.00
2023-04-07T02:40:53.039Z,0.00
2023-04-07T02:41:53.015Z,0.00
2023-04-07T02:42:53.028Z,0.00
2023-04-07T02:43:53.288Z,0.00
2023-04-07T02:44:52.973Z,0.00
2023-04-07T02:46:52.992Z,0.00
2023-04-07T02:48:52.972Z,0.00
2023-04-07T02:49:53.115Z,0.00
2023-04-07T02:50:55.906Z,0.00
2023-04-07T02:51:52.938Z,0.00
2023-04-07T02:52:52.894Z,0.00
2023-04-07T02:53:53.153Z,0.00
2023-04-07T02:54:52.934Z,0.00
2023-04-07T02:55:52.884Z,0.00
2023-04-07T02:56:52.878Z,0.00
2023-04-07T02:57:52.869Z,0.00
2023-04-07T02:58:52.851Z,0.00
2023-04-07T02:59:52.897Z,0.00
2023-04-07T03:00:52.905Z,0.00
2023-04-07T03:01:52.911Z,0.00
2023-04-07T03:02:52.990Z,0.00
2023-04-07T03:03:53.189Z,0.00
2023-04-07T03:04:52.790Z,0.00
2023-04-07T03:05:55.781Z,0.00
2023-04-07T03:06:52.797Z,0.00
2023-04-07T03:07:52.757Z,0.00
2023-04-07T03:08:52.757Z,0.00
2023-04-07T03:09:52.743Z,0.00
2023-04-07T03:10:52.761Z,0.00
2023-04-07T03:11:52.726Z,0.00
2023-04-07T03:13:52.986Z,0.00
2023-04-07T03:14:52.663Z,0.00
2023-04-07T03:15:52.653Z,0.00
2023-04-07T03:16:52.805Z,0.00
2023-04-07T03:18:52.663Z,0.00
2023-04-07T03:19:52.685Z,0.00
2023-04-07T03:20:55.625Z,0.00
2023-04-07T03:21:52.622Z,0.00
2023-04-07T03:23:52.904Z,0.00
2023-04-07T03:24:52.583Z,0.00
2023-04-07T03:25:52.580Z,0.00
2023-04-07T03:26:52.544Z,0.00
2023-04-07T03:27:52.527Z,0.00
2023-04-07T03:28:52.547Z,0.00
2023-04-07T03:29:52.539Z,0.00
2023-04-07T03:30:52.585Z,0.00
2023-04-07T03:31:52.544Z,0.00
2023-04-07T03:33:52.752Z,0.00
2023-04-07T03:34:52.493Z,0.00
2023-04-07T03:35:55.537Z,0.00
2023-04-07T03:36:52.482Z,0.00
2023-04-07T03:38:52.438Z,0.00
2023-04-07T03:39:52.437Z,0.00
2023-04-07T03:40:52.421Z,0.00
2023-04-07T03:41:52.407Z,0.00
2023-04-07T03:42:52.408Z,0.00
2023-04-07T03:43:52.665Z,0.00
2023-04-07T03:44:52.385Z,0.00
2023-04-07T03:45:52.440Z,0.00
2023-04-07T03:46:52.333Z,0.00
2023-04-07T03:47:52.421Z,0.00
2023-04-07T03:48:52.337Z,0.00
2023-04-07T03:49:52.328Z,0.00
2023-04-07T03:50:55.440Z,0.00
2023-04-07T03:51:52.315Z,0.00
2023-04-07T03:52:52.276Z,0.00
2023-04-07T03:53:52.462Z,0.00
2023-04-07T03:54:52.273Z,0.00
2023-04-07T03:55:52.259Z,0.00
2023-04-07T03:56:52.258Z,0.00
2023-04-07T03:57:52.248Z,0.00
2023-04-07T03:58:52.279Z,0.00
2023-04-07T03:59:52.197Z,0.00
2023-04-07T04:00:52.183Z,0.00
2023-04-07T04:01:52.310Z,0.00
2023-04-07T04:02:52.345Z,0.00
2023-04-07T04:04:52.251Z,0.00
2023-04-07T04:05:55.159Z,0.00
2023-04-07T04:06:52.153Z,0.00
2023-04-07T04:07:52.130Z,0.00
2023-04-07T04:08:52.125Z,0.00
2023-04-07T04:09:52.125Z,0.00
2023-04-07T04:10:52.113Z,0.00
2023-04-07T04:11:52.109Z,0.00
2023-04-07T04:12:52.142Z,0.00
2023-04-07T04:13:52.263Z,0.00
2023-04-07T04:14:52.164Z,0.00
2023-04-07T04:15:52.111Z,0.00
2023-04-07T04:16:52.066Z,0.00
2023-04-07T04:17:52.093Z,0.00
2023-04-07T04:18:52.005Z,0.00
2023-04-07T04:19:52.033Z,0.00
2023-04-07T04:20:54.990Z,0.00
2023-04-07T04:21:51.981Z,0.00
2023-04-07T04:22:51.981Z,0.00
2023-04-07T04:23:52.182Z,0.00
2023-04-07T04:24:51.993Z,0.00
2023-04-07T04:25:51.939Z,0.00
2023-04-07T04:26:51.938Z,0.00
2023-04-07T04:27:51.902Z,0.00
2023-04-07T04:28:51.894Z,0.00
2023-04-07T04:29:51.919Z,0.00
2023-04-07T04:30:51.868Z,0.00
2023-04-07T04:32:51.892Z,0.00
2023-04-07T04:33:51.986Z,0.00
2023-04-07T04:34:51.776Z,0.00
2023-04-07T04:35:54.814Z,0.00
2023-04-07T04:36:51.835Z,0.00
2023-04-07T04:37:51.778Z,0.00
2023-04-07T04:38:51.767Z,0.00
2023-04-07T04:39:51.917Z,0.00
2023-04-07T04:40:51.735Z,0.00
2023-04-07T04:41:51.710Z,0.00
2023-04-07T04:42:51.740Z,0.00
2023-04-07T04:43:51.732Z,0.00
2023-04-07T04:44:51.714Z,0.00
2023-04-07T04:45:51.701Z,0.00
2023-04-07T04:46:51.690Z,0.00
2023-04-07T04:47:51.756Z,5.62
2023-04-07T04:48:51.665Z,5.62
2023-04-07T04:49:51.658Z,5.62
2023-04-07T04:50:54.683Z,5.62
2023-04-07T04:51:51.651Z,5.62
2023-04-07T04:52:51.603Z,5.62
2023-04-07T04:53:51.861Z,11.25
2023-04-07T04:54:51.619Z,11.25
2023-04-07T04:55:51.603Z,11.25
2023-04-07T04:56:51.595Z,16.88
2023-04-07T04:57:51.584Z,16.88
2023-04-07T04:58:51.541Z,16.88
2023-04-07T04:59:51.541Z,22.50
2023-04-07T05:00:51.574Z,22.50
2023-04-07T05:01:51.730Z,22.50
2023-04-07T05:02:51.719Z,28.12
2023-04-07T05:03:51.779Z,28.12
2023-04-07T05:04:51.716Z,33.75
2023-04-07T05:05:54.513Z,33.75
2023-04-07T05:07:51.478Z,39.38
2023-04-07T05:08:51.439Z,45.00
2023-04-07T05:09:51.458Z,45.00
2023-04-07T05:10:51.418Z,50.62
2023-04-07T05:11:51.418Z,50.62
2023-04-07T05:12:51.418Z,50.62
2023-04-07T05:13:51.514Z,50.62
2023-04-07T05:14:51.400Z,50.62
2023-04-07T05:15:51.421Z,50.62
2023-04-07T05:16:51.360Z,56.25
2023-04-07T05:17:51.412Z,56.25
2023-04-07T05:18:51.364Z,56.25
2023-04-07T05:19:51.318Z,56.25
2023-04-07T05:20:54.400Z,56.25
2023-04-07T05:21:51.348Z,56.25
2023-04-07T05:22:51.322Z,56.25
2023-04-07T05:23:51.524Z,56.25
2023-04-07T05:24:51.289Z,56.25
2023-04-07T05:25:51.455Z,61.88
2023-04-07T05:26:51.253Z,61.88
2023-04-07T05:27:51.278Z,61.88
2023-04-07T05:28:51.256Z,61.88
2023-04-07T05:29:51.219Z,67.50
2023-04-07T05:30:51.246Z,67.50
2023-04-07T05:31:51.330Z,67.50
2023-04-07T05:32:51.266Z,73.12
2023-04-07T05:33:51.458Z,73.12
2023-04-07T05:34:51.181Z,73.12
2023-04-07T05:35:54.212Z,78.75
2023-04-07T05:36:51.211Z,84.38
2023-04-07T05:38:51.126Z,90.00
2023-04-07T05:39:51.120Z,95.62
2023-04-07T05:40:51.109Z,101.25
2023-04-07T05:41:51.120Z,106.88
2023-04-07T05:42:51.118Z,112.50
2023-04-07T05:43:51.369Z,118.12
2023-04-07T05:44:51.060Z,123.75
2023-04-07T05:45:51.077Z,123.75
2023-04-07T05:46:51.088Z,129.38
2023-04-07T05:47:51.049Z,129.38
2023-04-07T05:48:51.020Z,135.00
2023-04-07T05:49:51.034Z,140.62
2023-04-07T05:50:54.026Z,140.62
2023-04-07T05:51:50.985Z,146.25
2023-04-07T05:52:50.982Z,146.25
2023-04-07T05:53:51.137Z,151.88
2023-04-07T05:55:50.974Z,163.12
2023-04-07T05:56:50.929Z,174.38
2023-04-07T05:57:50.932Z,180.00
2023-04-07T05:58:50.909Z,191.25
2023-04-07T05:59:50.906Z,196.88
2023-04-07T06:00:50.899Z,202.50
2023-04-07T06:01:50.995Z,208.12
2023-04-07T06:02:51.184Z,213.75
2023-04-07T06:03:51.147Z,213.75
2023-04-07T06:04:50.892Z,219.38
2023-04-07T06:05:53.846Z,219.38
2023-04-07T06:06:50.840Z,219.38
2023-04-07T06:07:50.839Z,219.38
2023-04-07T06:08:50.870Z,219.38
2023-04-07T06:09:50.797Z,219.38
2023-04-07T06:10:50.826Z,219.38
2023-04-07T06:11:50.789Z,213.75
2023-04-07T06:12:50.814Z,213.75
2023-04-07T06:13:51.137Z,213.75
2023-04-07T06:14:50.781Z,208.12
2023-04-07T06:15:50.740Z,208.12
2023-04-07T06:16:50.734Z,208.12
2023-04-07T06:17:50.812Z,208.12
2023-04-07T06:18:50.730Z,208.12
2023-04-07T06:19:50.721Z,208.12
2023-04-07T06:20:53.692Z,208.12
2023-04-07T06:21:50.755Z,208.12
2023-04-07T06:23:51.088Z,219.38
2023-04-07T06:24:50.642Z,225.00
2023-04-07T06:25:50.668Z,230.62
2023-04-07T06:26:50.625Z,236.25
2023-04-07T06:28:50.677Z,253.12
2023-04-07T06:29:50.620Z,264.38
2023-04-07T06:30:50.723Z,275.62
2023-04-07T06:31:50.569Z,286.88
2023-04-07T06:32:50.612Z,298.12
2023-04-07T06:33:50.814Z,315.00
2023-04-07T06:34:50.562Z,326.25
2023-04-07T06:35:53.518Z,337.50
2023-04-07T06:36:50.603Z,348.75
2023-04-07T06:37:50.548Z,360.00
2023-04-07T06:39:50.639Z,376.88
2023-04-07T06:41:50.471Z,410.62
2023-04-07T06:42:50.446Z,405.00
2023-04-07T06:43:50.511Z,416.25
2023-04-07T06:44:50.464Z,421.88
2023-04-07T06:45:50.510Z,427.50
2023-04-07T06:46:50.483Z,427.50
2023-04-07T06:47:50.473Z,427.50
2023-04-07T06:48:50.488Z,421.88
2023-04-07T06:49:50.407Z,416.25
2023-04-07T06:50:53.393Z,405.00
2023-04-07T06:51:50.371Z,393.75
2023-04-07T06:52:50.348Z,382.50
2023-04-07T06:53:50.426Z,365.62
2023-04-07T06:54:50.364Z,354.38
2023-04-07T06:55:50.314Z,343.12
2023-04-07T06:56:50.578Z,337.50
2023-04-07T06:57:50.296Z,331.88
2023-04-07T06:58:50.313Z,331.88
2023-04-07T06:59:50.313Z,326.25
2023-04-07T07:00:50.254Z,326.25
2023-04-07T07:01:50.466Z,326.25
2023-04-07T07:02:50.362Z,331.88
2023-04-07T07:03:50.547Z,343.12
2023-04-07T07:04:50.248Z,348.75
2023-04-07T07:05:53.209Z,354.38
2023-04-07T07:07:50.195Z,365.62
2023-04-07T07:09:50.194Z,371.25
2023-04-07T07:10:50.195Z,371.25
2023-04-07T07:11:50.173Z,371.25
2023-04-07T07:12:50.281Z,376.88
2023-04-07T07:14:50.140Z,376.88
2023-04-07T07:15:50.147Z,376.88
2023-04-07T07:17:50.180Z,382.50
2023-04-07T07:18:50.085Z,382.50
2023-04-07T07:19:50.089Z,382.50
2023-04-07T07:20:53.074Z,388.12
2023-04-07T07:21:50.075Z,388.12
2023-04-07T07:22:50.051Z,388.12
2023-04-07T07:23:50.341Z,388.12
2023-04-07T07:24:50.035Z,388.12
2023-04-07T07:25:50.066Z,388.12
2023-04-07T07:26:50.858Z,388.12
2023-04-07T07:27:50.039Z,388.12
2023-04-07T07:28:49.975Z,393.75
2023-04-07T07:29:49.993Z,393.75
2023-04-07T07:30:50.018Z,393.75
2023-04-07T07:31:49.974Z,399.38
2023-04-07T07:32:49.955Z,399.38
2023-04-07T07:33:50.204Z,405.00
2023-04-07T07:34:49.949Z,410.62
2023-04-07T07:35:52.931Z,416.25
2023-04-07T07:37:49.874Z,421.88
2023-04-07T07:38:49.908Z,427.50
2023-04-07T07:39:49.861Z,433.12
2023-04-07T07:40:49.975Z,433.12
2023-04-07T07:41:49.837Z,438.75
2023-04-07T07:42:49.854Z,444.38
2023-04-07T07:43:50.071Z,444.38
2023-04-07T07:44:49.832Z,444.38
2023-04-07T07:45:49.793Z,444.38
2023-04-07T07:46:49.863Z,444.38
2023-04-07T07:47:49.804Z,444.38
2023-04-07T07:48:49.768Z,444.38
2023-04-07T07:49:49.826Z,438.75
2023-04-07T07:50:53.025Z,438.75
2023-04-07T07:51:49.769Z,433.12
2023-04-07T07:52:49.722Z,433.12
2023-04-07T07:53:50.045Z,433.12
2023-04-07T07:54:49.807Z,427.50
2023-04-07T07:55:49.699Z,427.50
2023-04-07T07:56:49.710Z,421.88
2023-04-07T07:57:49.684Z,416.25
2023-04-07T07:58:49.685Z,410.62
2023-04-07T07:59:49.685Z,405.00
2023-04-07T08:00:49.667Z,393.75
2023-04-07T08:01:57.197Z,388.12
2023-04-07T08:02:49.715Z,382.50
2023-04-07T08:03:50.057Z,376.88
2023-04-07T08:04:49.643Z,376.88
2023-04-07T08:05:52.681Z,376.88
2023-04-07T08:06:49.581Z,382.50
2023-04-07T08:07:49.597Z,382.50
2023-04-07T08:08:49.586Z,388.12
2023-04-07T08:09:49.546Z,393.75
2023-04-07T08:10:49.563Z,399.38
2023-04-07T08:11:49.545Z,410.62
2023-04-07T08:12:49.545Z,421.88
2023-04-07T08:13:49.779Z,427.50
2023-04-07T08:14:49.520Z,433.12
2023-04-07T08:15:49.539Z,444.38
2023-04-07T08:16:49.525Z,455.62
2023-04-07T08:17:49.545Z,466.88
2023-04-07T08:18:49.755Z,483.75
2023-04-07T08:19:49.473Z,495.00
2023-04-07T08:20:52.428Z,506.25
2023-04-07T08:21:49.457Z,511.88
2023-04-07T08:22:49.444Z,523.12
2023-04-07T08:23:49.622Z,540.00
2023-04-07T08:24:49.395Z,551.25
2023-04-07T08:25:49.387Z,568.12
2023-04-07T08:26:49.392Z,579.38
2023-04-07T08:27:49.411Z,590.62
2023-04-07T08:28:49.376Z,607.50
2023-04-07T08:29:49.370Z,624.38
2023-04-07T08:30:49.545Z,641.25
2023-04-07T08:31:49.315Z,658.12
2023-04-07T08:32:49.343Z,675.00
2023-04-07T08:33:49.682Z,691.88
2023-04-07T08:34:49.304Z,714.38
2023-04-07T08:35:52.411Z,731.25
2023-04-07T08:37:49.259Z,770.62
2023-04-07T08:38:49.239Z,787.50
2023-04-07T08:39:49.248Z,810.00
2023-04-07T08:40:49.227Z,826.88
2023-04-07T08:41:49.248Z,849.38
2023-04-07T08:42:49.234Z,871.88
2023-04-07T08:43:49.431Z,888.75
2023-04-07T08:44:49.194Z,905.62
2023-04-07T08:45:49.199Z,916.88
2023-04-07T08:47:49.198Z,939.38
2023-04-07T08:48:49.182Z,945.00
2023-04-07T08:50:52.112Z,933.75
2023-04-07T08:51:49.118Z,922.50
2023-04-07T08:52:49.127Z,905.62
2023-04-07T08:53:49.365Z,888.75
2023-04-07T08:54:49.104Z,871.88
2023-04-07T08:56:49.095Z,826.88
2023-04-07T09:00:13.446Z,787.50
2023-04-07T09:01:11.569Z,787.50
2023-04-07T09:02:11.488Z,798.75
2023-04-07T09:03:11.966Z,810.00
2023-04-07T09:04:11.438Z,821.25
2023-04-07T09:05:11.412Z,832.50
2023-04-07T09:06:11.407Z,849.38
2023-04-07T09:07:11.383Z,871.88
2023-04-07T09:09:11.444Z,916.88
2023-04-07T09:10:11.369Z,945.00
2023-04-07T09:11:11.310Z,984.38
2023-04-07T09:12:11.321Z,1012.50
2023-04-07T09:13:14.287Z,1063.12
2023-04-07T09:16:59.937Z,1091.25
2023-04-07T09:17:59.813Z,1091.25
2023-04-07T09:23:16.637Z,1018.12
2023-04-07T09:24:15.007Z,984.38
2023-04-07T09:29:30.583Z,916.88
2023-04-07T09:31:30.623Z,900.00
2023-04-07T09:32:30.570Z,894.38
2023-04-07T09:33:30.563Z,883.12
2023-04-07T09:34:30.514Z,866.25
2023-04-07T09:35:30.604Z,849.38
2023-04-07T09:36:30.552Z,849.38
2023-04-07T09:37:30.512Z,866.25
2023-04-07T09:38:30.492Z,883.12
2023-04-07T09:44:10.047Z,860.62
2023-04-07T09:46:09.182Z,911.25
2023-04-07T09:47:08.089Z,939.38
2023-04-07T09:48:08.105Z,978.75
2023-04-07T09:49:08.065Z,1006.88
2023-04-07T09:50:08.062Z,1035.00
2023-04-07T09:51:08.034Z,1040.62
2023-04-07T09:52:08.211Z,1046.25
2023-04-07T09:53:08.040Z,1046.25
2023-04-07T09:54:07.989Z,1051.88
2023-04-07T09:57:12.401Z,1068.75
2023-04-07T09:58:10.606Z,1085.62
2023-04-07T10:01:19.347Z,1141.88
2023-04-07T10:02:19.502Z,1141.88
2023-04-07T10:03:19.263Z,1136.25
2023-04-07T10:04:19.279Z,1136.25
2023-04-07T10:05:19.249Z,1147.50
2023-04-07T10:06:19.235Z,1158.75
2023-04-07T10:07:19.193Z,1164.38
2023-04-07T10:11:18.696Z,1051.88
2023-04-07T10:12:18.630Z,1001.25
2023-04-07T10:13:18.663Z,967.50
2023-04-07T10:14:27.124Z,933.75
2023-04-07T10:15:18.616Z,900.00
2023-04-07T10:16:18.620Z,843.75
2023-04-07T10:17:18.581Z,826.88
2023-04-07T10:18:18.610Z,810.00
2023-04-07T10:19:18.589Z,832.50
2023-04-07T10:20:18.544Z,866.25
2023-04-07T10:21:18.535Z,905.62
2023-04-07T10:22:18.517Z,967.50
2023-04-07T10:23:18.546Z,1051.88
2023-04-07T10:24:21.582Z,1080.00
2023-04-07T10:25:18.534Z,1119.38
2023-04-07T10:27:18.580Z,1243.12
2023-04-07T10:28:18.458Z,1265.62
2023-04-07T10:29:18.480Z,1260.00
2023-04-07T10:30:18.607Z,1231.88
2023-04-07T10:31:18.487Z,1237.50
2023-04-07T10:32:18.430Z,1282.50
2023-04-07T10:33:18.460Z,1310.62
2023-04-07T10:34:18.399Z,1316.25
2023-04-07T10:35:18.795Z,1321.88
2023-04-07T10:36:18.406Z,1327.50
2023-04-07T10:37:18.374Z,1321.88
2023-04-07T10:38:18.463Z,1305.00
2023-04-07T10:39:21.364Z,1316.25
2023-04-07T10:40:18.384Z,1310.62
2023-04-07T10:41:18.329Z,1305.00
2023-04-07T10:42:18.337Z,1305.00
2023-04-07T10:43:18.322Z,1299.38
2023-04-07T10:44:18.288Z,1305.00
2023-04-07T10:45:18.353Z,1299.38
2023-04-07T10:46:18.406Z,1299.38
2023-04-07T10:47:18.257Z,1293.75
2023-04-07T10:48:18.530Z,1282.50
2023-04-07T10:49:19.080Z,1265.62
2023-04-07T10:50:18.335Z,1254.38
2023-04-07T10:51:19.210Z,1248.75
2023-04-07T10:52:18.279Z,1243.12
2023-04-07T10:53:18.195Z,1237.50
2023-04-07T10:54:21.239Z,1226.25
2023-04-07T10:55:18.188Z,1215.00
2023-04-07T10:56:18.162Z,1181.25
2023-04-07T10:57:18.209Z,1170.00
2023-04-07T10:58:18.144Z,1153.12
2023-04-07T10:59:18.149Z,1147.50
2023-04-07T11:00:18.166Z,1170.00
2023-04-07T11:04:26.980Z,1220.62
2023-04-07T11:05:25.325Z,1226.25
2023-04-07T11:06:25.272Z,1226.25
2023-04-07T11:07:25.296Z,1231.88
2023-04-07T11:08:25.267Z,1226.25
2023-04-07T11:10:26.252Z,1231.88
2023-04-07T11:12:25.216Z,1231.88
2023-04-07T11:13:25.207Z,1198.12
2023-04-07T11:14:25.199Z,1198.12
2023-04-07T11:15:25.199Z,1192.50
2023-04-07T11:16:25.247Z,1203.75
2023-04-07T11:17:28.241Z,1215.00
2023-04-07T11:18:25.196Z,1243.12
2023-04-07T11:19:25.155Z,1260.00
2023-04-07T11:20:25.198Z,1265.62
2023-04-07T11:21:25.141Z,1276.88
2023-04-07T11:22:29.795Z,1276.88
2023-04-07T11:23:25.106Z,1271.25
2023-04-07T11:25:25.110Z,1282.50
2023-04-07T11:26:25.103Z,1305.00
2023-04-07T11:27:25.110Z,1305.00
2023-04-07T11:28:25.062Z,1293.75
2023-04-07T11:29:25.076Z,1276.88
2023-04-07T11:31:25.119Z,1231.88
2023-04-07T11:32:28.098Z,1215.00
2023-04-07T11:33:25.044Z,1209.38
2023-04-07T11:34:25.025Z,1215.00
2023-04-07T11:37:43.958Z,1175.62
2023-04-07T11:41:14.057Z,973.12
2023-04-07T11:42:30.772Z,916.88
2023-04-07T11:43:14.016Z,922.50
2023-04-07T11:44:14.021Z,883.12
2023-04-07T11:45:14.028Z,888.75
2023-04-07T11:46:14.030Z,922.50
2023-04-07T11:47:13.981Z,978.75
2023-04-07T11:48:14.014Z,1018.12
2023-04-07T11:49:14.008Z,1001.25
2023-04-07T11:52:44.391Z,916.88
2023-04-07T11:53:42.594Z,888.75
2023-04-07T11:54:42.594Z,843.75
2023-04-07T11:56:42.518Z,714.38
2023-04-07T11:57:42.515Z,646.88
2023-04-07T11:58:42.520Z,540.00
2023-04-07T11:59:42.495Z,450.00
2023-04-07T12:00:42.495Z,360.00
2023-04-07T12:01:42.559Z,303.75
2023-04-07T12:02:42.689Z,270.00
2023-04-07T12:03:42.590Z,253.12
2023-04-07T12:04:42.571Z,247.50
2023-04-07T12:05:45.455Z,270.00
2023-04-07T12:06:42.824Z,286.88
2023-04-07T12:07:42.846Z,286.88
2023-04-07T12:08:43.669Z,309.38
2023-04-07T12:09:42.830Z,343.12
2023-04-07T12:10:42.792Z,337.50
2023-04-07T12:11:42.824Z,326.25
2023-04-07T12:12:42.819Z,331.88
2023-04-07T12:13:42.791Z,326.25
2023-04-07T12:14:43.948Z,309.38
2023-04-07T12:16:42.689Z,410.62
2023-04-07T12:17:42.460Z,506.25
2023-04-07T12:18:42.621Z,495.00
2023-04-07T12:19:42.658Z,466.88
2023-04-07T12:20:45.508Z,444.38
2023-04-07T12:21:42.616Z,444.38
2023-04-07T12:23:42.532Z,540.00
2023-04-07T12:24:42.627Z,573.75
2023-04-07T12:26:45.825Z,630.00
2023-04-07T12:27:43.553Z,663.75
2023-04-07T12:29:43.263Z,703.12
2023-04-07T12:30:42.498Z,714.38
2023-04-07T12:31:42.401Z,725.62
2023-04-07T12:32:42.484Z,736.88
2023-04-07T12:33:42.412Z,736.88
2023-04-07T12:34:42.440Z,736.88
2023-04-07T12:35:45.789Z,742.50
2023-04-07T12:36:43.376Z,753.75
2023-04-07T12:37:42.427Z,770.62
2023-04-07T12:38:43.186Z,787.50
2023-04-07T12:39:42.204Z,804.38
2023-04-07T12:40:42.201Z,810.00
2023-04-07T12:41:42.217Z,810.00
2023-04-07T12:42:42.054Z,810.00
2023-04-07T12:43:42.080Z,798.75
2023-04-07T12:44:42.135Z,787.50
2023-04-07T12:45:42.287Z,770.62
2023-04-07T12:46:42.344Z,759.38
2023-04-07T12:47:43.320Z,770.62
2023-04-07T12:48:43.021Z,804.38
2023-04-07T12:49:42.272Z,832.50
2023-04-07T12:50:45.384Z,860.62
2023-04-07T12:51:41.998Z,877.50
2023-04-07T12:52:41.985Z,877.50
2023-04-07T12:53:42.960Z,877.50
2023-04-07T12:54:42.027Z,883.12
2023-04-07T12:55:43.018Z,888.75
2023-04-07T12:56:42.903Z,894.38
2023-04-07T12:57:42.055Z,900.00
2023-04-07T12:58:42.952Z,905.62
2023-04-07T12:59:41.900Z,905.62
2023-04-07T13:00:42.866Z,900.00
2023-04-07T13:01:41.947Z,900.00
2023-04-07T13:02:42.170Z,905.62
2023-04-07T13:03:42.075Z,905.62
2023-04-07T13:04:42.008Z,900.00
2023-04-07T13:05:44.843Z,894.38
2023-04-07T13:06:41.809Z,922.50
2023-04-07T13:07:41.800Z,950.62
2023-04-07T13:09:41.805Z,978.75
2023-04-07T13:10:41.763Z,978.75
2023-04-07T13:11:41.793Z,995.62
2023-04-07T13:12:41.760Z,1018.12
2023-04-07T13:13:41.774Z,1051.88
2023-04-07T13:14:53.175Z,1102.50
2023-04-07T13:15:42.718Z,1170.00
2023-04-07T13:16:41.757Z,1231.88
2023-04-07T13:17:41.774Z,1310.62
2023-04-07T13:18:41.683Z,1406.25
2023-04-07T13:19:41.694Z,1490.62
2023-04-07T13:20:54.436Z,1575.00
2023-04-07T13:21:46.674Z,1603.12
2023-04-07T13:22:49.318Z,1788.75
2023-04-07T13:23:43.854Z,1642.50
2023-04-07T13:24:41.627Z,1597.50
2023-04-07T13:25:41.613Z,1541.25
2023-04-07T13:26:41.626Z,1546.88
2023-04-07T13:27:41.619Z,1546.88
2023-04-07T13:29:41.604Z,1440.00
2023-04-07T13:30:41.590Z,1355.62
2023-04-07T13:32:41.568Z,1355.62
2023-04-07T13:33:41.517Z,1378.12
2023-04-07T13:34:41.541Z,1389.38
2023-04-07T13:35:44.544Z,1490.62
2023-04-07T13:36:41.527Z,1530.00
2023-04-07T13:37:41.491Z,1586.25
2023-04-07T13:38:41.483Z,1575.00
2023-04-07T13:40:41.487Z,1451.25
2023-04-07T13:42:41.464Z,1507.50
2023-04-07T13:43:41.462Z,1575.00
2023-04-07T13:45:41.426Z,1597.50
2023-04-07T13:46:41.415Z,1507.50
2023-04-07T13:47:41.421Z,1530.00
2023-04-07T13:48:41.361Z,1704.38
2023-04-07T13:49:41.395Z,1816.88
2023-04-07T13:50:44.382Z,1811.25
2023-04-07T13:52:41.349Z,1749.38
2023-04-07T13:53:41.347Z,1366.88
2023-04-07T13:55:52.518Z,1158.75
2023-04-07T13:56:41.294Z,1068.75
2023-04-07T13:57:41.329Z,1012.50
2023-04-07T13:58:41.302Z,978.75
2023-04-07T13:59:41.302Z,967.50
2023-04-07T14:00:41.274Z,967.50
2023-04-07T14:01:41.361Z,984.38
2023-04-07T14:02:41.347Z,1012.50
2023-04-07T14:03:41.269Z,1023.75
2023-04-07T14:04:41.452Z,1175.62
2023-04-07T14:05:44.192Z,1023.75
2023-04-07T14:06:41.192Z,973.12
2023-04-07T14:07:41.169Z,939.38
2023-04-07T14:08:41.194Z,933.75
2023-04-07T14:10:41.171Z,967.50
2023-04-07T14:12:41.119Z,916.88
2023-04-07T14:13:41.133Z,866.25
2023-04-07T14:14:41.110Z,826.88